Time;durP1;ratioP1;P1;durP2;ratioP2;P2;SDS_P1;SDS_P2;PMS_P1;PMS_P2;Temp;Humidity;BMP_temperature;BMP_pressure;BME280_temperature;BME280_humidity;BME280_pressure;Samples;Min_cycle;Max_cycle;Signal;HPM_P1;HPM_P2
2020/12/12 00:02:19;;;;;;;4.15;3.33;;;18.90;50.80;;;;;;5072297;28;20042;-62
2020/12/12 00:04:45;;;;;;;3.67;3.35;;;18.80;50.80;;;;;;5075032;28;20521;-60
2020/12/12 00:07:10;;;;;;;3.83;3.20;;;18.80;50.80;;;;;;5070446;28;20048;-62
2020/12/12 00:09:36;;;;;;;3.95;3.30;;;18.80;50.80;;;;;;5046549;28;20036;-62
2020/12/12 00:12:02;;;;;;;4.18;3.10;;;18.80;50.80;;;;;;5071061;28;20028;-59
2020/12/12 00:14:27;;;;;;;4.30;3.47;;;18.70;51.10;;;;;;5069552;28;20080;-61
2020/12/12 00:16:53;;;;;;;3.42;2.88;;;18.70;50.80;;;;;;5066512;28;20036;-63
2020/12/12 00:19:19;;;;;;;3.63;2.95;;;18.80;51.00;;;;;;5064057;28;20044;-62
2020/12/12 00:21:50;;;;;;;3.60;3.00;;;19.00;51.30;;;;;;5063702;28;20032;-59
2020/12/12 00:24:15;;;;;;;3.55;2.78;;;19.10;51.50;;;;;;5046213;28;20470;-62
2020/12/12 00:26:41;;;;;;;3.83;2.78;;;19.30;51.60;;;;;;5063326;28;20029;-59
2020/12/12 00:29:06;;;;;;;3.33;3.00;;;19.40;51.50;;;;;;5045057;28;20021;-59
2020/12/12 00:31:32;;;;;;;3.83;2.60;;;19.50;51.60;;;;;;5062649;28;20044;-58
2020/12/12 00:33:57;;;;;;;3.60;3.25;;;19.60;51.60;;;;;;5063586;28;20032;-62
2020/12/12 00:36:23;;;;;;;3.03;2.70;;;19.70;51.50;;;;;;5063731;28;20061;-58
2020/12/12 00:38:48;;;;;;;3.95;2.80;;;19.80;51.40;;;;;;5063415;28;20182;-62
2020/12/12 00:41:14;;;;;;;4.22;2.90;;;19.80;51.30;;;;;;5062890;28;20041;-62
2020/12/12 00:43:39;;;;;;;4.00;2.80;;;19.80;51.20;;;;;;5063100;28;20032;-62
2020/12/12 00:46:05;;;;;;;3.30;2.72;;;19.80;51.10;;;;;;5063174;28;20089;-56
2020/12/12 00:48:30;;;;;;;3.58;2.90;;;19.80;51.00;;;;;;5063203;28;20402;-61
2020/12/12 00:50:56;;;;;;;2.75;2.50;;;19.80;50.90;;;;;;5062838;28;20035;-63
2020/12/12 00:53:21;;;;;;;3.50;3.13;;;19.80;50.90;;;;;;5064329;28;20033;-58
2020/12/12 00:55:47;;;;;;;3.78;2.55;;;19.80;50.80;;;;;;5062862;28;20083;-62
2020/12/12 00:58:12;;;;;;;3.85;3.08;;;19.70;50.70;;;;;;5062684;28;20459;-62
2020/12/12 01:00:37;;;;;;;3.83;3.20;;;19.80;50.60;;;;;;5060633;28;20509;-62
2020/12/12 01:03:03;;;;;;;3.20;2.90;;;19.70;50.50;;;;;;5062691;28;20033;-62
2020/12/12 01:05:31;;;;;;;4.85;2.67;;;19.70;50.50;;;;;;5063946;28;20029;-62
2020/12/12 01:07:57;;;;;;;3.40;3.10;;;19.70;50.50;;;;;;5063511;28;20402;-62
2020/12/12 01:10:22;;;;;;;3.60;3.05;;;19.60;50.40;;;;;;5063110;28;20021;-61
2020/12/12 01:12:48;;;;;;;4.65;3.47;;;19.60;50.40;;;;;;5044417;28;20024;-61
2020/12/12 01:15:13;;;;;;;4.68;3.17;;;19.60;50.20;;;;;;5062748;28;20174;-61
2020/12/12 01:17:39;;;;;;;3.72;2.97;;;19.60;50.20;;;;;;5062862;28;20040;-61
2020/12/12 01:20:04;;;;;;;4.00;3.13;;;19.50;50.10;;;;;;5045010;28;20031;-62
2020/12/12 01:22:30;;;;;;;3.97;3.00;;;19.50;50.20;;;;;;5062976;28;20032;-63
2020/12/12 01:24:55;;;;;;;4.78;3.13;;;19.40;50.20;;;;;;5062771;28;20120;-62
2020/12/12 01:27:21;;;;;;;3.72;2.85;;;19.40;50.20;;;;;;5062646;28;20472;-61
2020/12/12 01:29:46;;;;;;;3.40;3.10;;;19.40;50.30;;;;;;5061651;28;20037;-60
2020/12/12 01:32:13;;;;;;;4.90;2.95;;;19.30;50.10;;;;;;5054766;28;20044;-61
2020/12/12 01:34:39;;;;;;;3.90;3.20;;;19.30;50.20;;;;;;5063265;28;20419;-61
2020/12/12 01:37:04;;;;;;;3.15;2.85;;;19.30;50.20;;;;;;5063065;28;20032;-61
2020/12/12 01:39:30;;;;;;;4.18;3.40;;;19.20;50.10;;;;;;5063597;28;20036;-62
2020/12/12 01:41:55;;;;;;;3.97;3.08;;;19.20;50.10;;;;;;5062791;28;20032;-61
2020/12/12 01:44:21;;;;;;;4.15;2.92;;;19.20;50.10;;;;;;5062392;28;20040;-61
2020/12/12 01:46:48;;;;;;;3.90;3.20;;;19.20;50.20;;;;;;5045185;28;20032;-61
2020/12/12 01:49:13;;;;;;;3.47;3.03;;;19.10;50.10;;;;;;5061798;28;20436;-62
2020/12/12 01:51:39;;;;;;;3.30;2.70;;;19.10;50.10;;;;;;5027864;28;20055;-61
2020/12/12 01:54:04;;;;;;;3.20;2.80;;;19.10;50.20;;;;;;5044442;28;20036;-61
2020/12/12 01:56:30;;;;;;;3.72;3.05;;;19.10;50.10;;;;;;5045427;28;20085;-61
2020/12/12 01:58:55;;;;;;;3.40;2.72;;;19.00;50.10;;;;;;5044298;28;20390;-60
2020/12/12 02:01:21;;;;;;;3.45;2.90;;;19.00;50.00;;;;;;5027967;28;20040;-61
2020/12/12 02:03:47;;;;;;;3.65;3.00;;;18.90;50.00;;;;;;5062446;28;20037;-61
2020/12/12 02:06:13;;;;;;;2.92;2.53;;;18.90;50.10;;;;;;5044676;28;20055;-62
2020/12/12 02:08:38;;;;;;;4.40;2.85;;;18.80;50.00;;;;;;5027919;28;20025;-61
2020/12/12 02:11:04;;;;;;;3.92;3.33;;;18.80;50.00;;;;;;5062076;28;20077;-61
2020/12/12 02:13:30;;;;;;;3.17;2.88;;;18.80;50.10;;;;;;5063409;28;20043;-61
2020/12/12 02:15:55;;;;;;;4.03;2.80;;;18.80;50.10;;;;;;5045936;28;20031;-61
2020/12/12 02:18:24;;;;;;;3.50;2.90;;;18.80;50.10;;;;;;5065722;28;20281;-61
2020/12/12 02:20:58;;;;;;;3.65;3.05;;;18.70;50.10;;;;;;5065669;28;20025;-61
2020/12/12 02:23:23;;;;;;;4.18;3.20;;;18.70;50.00;;;;;;5030130;28;20040;-61
2020/12/12 02:25:49;;;;;;;4.68;2.90;;;18.70;50.10;;;;;;5065792;28;20025;-61
2020/12/12 02:28:18;;;;;;;3.88;3.10;;;18.60;50.00;;;;;;5031788;28;20035;-61
2020/12/12 02:30:44;;;;;;;3.67;3.20;;;18.60;50.00;;;;;;5065236;28;20552;-60
2020/12/12 02:33:09;;;;;;;3.05;2.75;;;18.60;50.10;;;;;;5066204;28;20033;-61
2020/12/12 02:35:35;;;;;;;3.92;2.55;;;18.60;50.10;;;;;;5065906;28;20024;-61
2020/12/12 02:38:00;;;;;;;3.53;2.70;;;18.70;50.30;;;;;;5065617;28;20044;-61
2020/12/12 02:40:26;;;;;;;2.92;2.63;;;18.80;50.60;;;;;;5047492;28;20037;-62
2020/12/12 02:42:51;;;;;;;3.22;2.90;;;18.90;50.70;;;;;;5065078;28;20031;-61
2020/12/12 02:45:18;;;;;;;3.05;2.75;;;19.00;50.70;;;;;;5066166;28;20029;-61
2020/12/12 02:47:45;;;;;;;3.33;2.83;;;19.10;50.80;;;;;;5032344;28;20037;-62
2020/12/12 02:50:11;;;;;;;3.20;2.88;;;19.20;50.90;;;;;;5065240;28;20104;-61
2020/12/12 02:52:37;;;;;;;2.47;2.13;;;19.30;50.90;;;;;;5065207;28;20051;-62
2020/12/12 02:55:04;;;;;;;2.63;2.42;;;19.30;50.80;;;;;;5065622;28;20036;-62
2020/12/12 02:57:29;;;;;;;2.80;2.58;;;19.30;50.70;;;;;;5064904;28;20040;-61
2020/12/12 02:59:54;;;;;;;3.42;2.90;;;19.40;50.70;;;;;;5065868;28;20048;-61
2020/12/12 03:02:20;;;;;;;3.00;2.30;;;19.40;50.60;;;;;;5065331;28;20036;-62
2020/12/12 03:04:45;;;;;;;3.55;2.72;;;19.40;50.50;;;;;;5065379;28;20450;-62
2020/12/12 03:07:11;;;;;;;2.78;2.10;;;19.40;50.50;;;;;;5047333;28;20124;-61
2020/12/12 03:09:36;;;;;;;3.42;2.90;;;19.40;50.40;;;;;;5065259;28;20036;-62
2020/12/12 03:12:02;;;;;;;2.83;2.60;;;19.40;50.30;;;;;;5062432;28;20473;-61
2020/12/12 03:14:29;;;;;;;2.92;2.25;;;19.30;50.20;;;;;;5066174;28;20032;-62
2020/12/12 03:16:55;;;;;;;3.05;2.33;;;19.30;50.20;;;;;;5046839;28;20498;-61
2020/12/12 03:19:20;;;;;;;2.90;2.58;;;19.30;50.20;;;;;;5046862;28;20055;-62
2020/12/12 03:21:46;;;;;;;2.65;2.45;;;19.30;50.10;;;;;;5064507;28;20040;-61
2020/12/12 03:24:11;;;;;;;2.78;2.42;;;19.20;50.00;;;;;;5064819;28;20025;-61
2020/12/12 03:26:37;;;;;;;2.72;2.28;;;19.20;49.90;;;;;;5065089;28;20032;-61
2020/12/12 03:29:02;;;;;;;2.65;2.30;;;19.20;49.90;;;;;;5047223;28;20033;-61
2020/12/12 03:31:28;;;;;;;2.35;2.13;;;19.20;49.90;;;;;;5063828;28;20051;-61
2020/12/12 03:33:53;;;;;;;3.28;2.60;;;19.10;49.90;;;;;;5046831;28;20499;-61
2020/12/12 03:36:19;;;;;;;2.90;2.20;;;19.10;50.00;;;;;;5075043;22;20045;-47
2020/12/12 03:38:44;;;;;;;3.47;2.25;;;19.10;50.00;;;;;;5062723;28;20051;-49
2020/12/12 03:41:10;;;;;;;3.67;2.70;;;19.00;50.00;;;;;;5055757;28;20029;-48
2020/12/12 03:43:35;;;;;;;2.85;2.47;;;19.00;50.00;;;;;;5042437;28;20045;-48
2020/12/12 03:46:02;;;;;;;3.05;2.30;;;19.00;49.90;;;;;;5040319;28;20037;-48
2020/12/12 03:48:28;;;;;;;2.60;2.40;;;18.90;49.90;;;;;;5043050;28;20029;-51
2020/12/12 03:50:53;;;;;;;2.78;2.35;;;18.90;49.90;;;;;;5057422;28;20547;-49
2020/12/12 03:53:19;;;;;;;2.78;2.25;;;18.90;50.00;;;;;;5063362;28;20048;-49
2020/12/12 03:55:44;;;;;;;2.92;2.40;;;18.90;50.00;;;;;;5052781;28;20029;-48
2020/12/12 03:58:10;;;;;;;3.05;2.40;;;18.80;49.90;;;;;;5043895;28;20032;-51
2020/12/12 04:00:35;;;;;;;2.75;2.30;;;18.80;49.90;;;;;;5043839;28;20521;-48
2020/12/12 04:03:01;;;;;;;2.30;2.10;;;18.80;49.90;;;;;;5025154;28;20041;-49
2020/12/12 04:05:26;;;;;;;2.78;2.33;;;18.80;49.90;;;;;;5043786;28;20040;-51
2020/12/12 04:07:52;;;;;;;2.33;2.13;;;18.70;49.80;;;;;;5044040;28;20120;-49
2020/12/12 04:10:17;;;;;;;2.60;2.25;;;18.70;49.90;;;;;;5043875;28;20502;-49
2020/12/12 04:12:43;;;;;;;2.60;2.08;;;18.70;49.90;;;;;;5024561;28;20029;-48
2020/12/12 04:15:08;;;;;;;2.05;1.90;;;18.80;49.90;;;;;;5043958;28;20029;-49
2020/12/12 04:17:34;;;;;;;1.95;1.80;;;18.80;50.10;;;;;;5042262;28;20727;-49
2020/12/12 04:19:59;;;;;;;2.33;2.10;;;18.90;50.20;;;;;;5043217;28;20486;-51
2020/12/12 04:22:25;;;;;;;2.25;2.05;;;19.00;50.30;;;;;;5042602;28;20064;-49
2020/12/12 04:24:50;;;;;;;2.05;1.58;;;19.10;50.40;;;;;;5042953;28;20029;-51
2020/12/12 04:27:16;;;;;;;2.88;2.28;;;19.20;50.50;;;;;;5042935;28;20040;-49
2020/12/12 04:29:41;;;;;;;2.03;1.83;;;19.30;50.50;;;;;;5043292;28;20112;-48
2020/12/12 04:32:07;;;;;;;3.38;2.20;;;19.30;50.40;;;;;;5041929;28;20502;-50
2020/12/12 04:34:32;;;;;;;2.42;2.10;;;19.40;50.40;;;;;;5042978;28;20091;-50
2020/12/12 04:36:58;;;;;;;2.30;1.90;;;19.40;50.40;;;;;;5042110;28;20094;-50
2020/12/12 04:39:23;;;;;;;2.50;1.77;;;19.40;50.30;;;;;;5042311;28;20033;-49
2020/12/12 04:41:49;;;;;;;2.13;1.92;;;19.40;50.20;;;;;;5041719;28;20091;-49
2020/12/12 04:44:14;;;;;;;2.17;1.83;;;19.40;50.20;;;;;;5024616;28;20033;-54
2020/12/12 04:46:40;;;;;;;2.35;2.15;;;19.40;50.00;;;;;;5025607;28;20115;-51
2020/12/12 04:49:05;;;;;;;2.70;2.28;;;19.30;49.90;;;;;;5024331;28;20037;-49
2020/12/12 04:51:31;;;;;;;3.35;2.10;;;19.40;50.00;;;;;;5041510;28;20044;-48
2020/12/12 04:53:57;;;;;;;2.30;2.10;;;19.30;49.90;;;;;;5024615;28;20055;-49
2020/12/12 04:56:24;;;;;;;2.15;1.52;;;19.30;49.80;;;;;;5042365;28;20041;-49
2020/12/12 04:58:50;;;;;;;2.47;1.90;;;19.30;49.80;;;;;;5042655;28;20033;-49
2020/12/12 05:01:19;;;;;;;2.67;2.25;;;19.30;49.80;;;;;;5040661;28;20041;-55
2020/12/12 05:03:45;;;;;;;2.00;1.80;;;19.20;49.60;;;;;;5004252;28;20029;-48
2020/12/12 05:06:10;;;;;;;2.17;1.83;;;19.20;49.40;;;;;;5052058;28;20039;-49
2020/12/12 05:08:36;;;;;;;1.98;1.77;;;19.20;49.50;;;;;;5057937;28;20041;-48
2020/12/12 05:11:01;;;;;;;2.20;1.95;;;19.20;49.70;;;;;;5041777;28;20037;-50
2020/12/12 05:13:30;;;;;;;2.97;1.98;;;19.10;49.60;;;;;;5024410;28;20037;-48
2020/12/12 05:15:57;;;;;;;1.98;1.80;;;19.10;49.60;;;;;;5042235;28;20490;-49
2020/12/12 05:18:23;;;;;;;2.47;2.17;;;19.10;49.60;;;;;;5042257;28;20044;-49
2020/12/12 05:20:49;;;;;;;2.10;1.90;;;19.10;49.70;;;;;;5041271;28;20036;-48
2020/12/12 05:23:15;;;;;;;1.88;1.75;;;19.00;49.60;;;;;;5024689;28;20497;-51
2020/12/12 05:25:41;;;;;;;1.88;1.67;;;19.00;49.60;;;;;;5042002;28;20063;-51
2020/12/12 05:28:07;;;;;;;2.00;1.80;;;19.00;49.70;;;;;;5041542;28;20048;-48
2020/12/12 05:30:34;;;;;;;2.00;1.75;;;18.90;49.60;;;;;;5042179;28;20033;-51
2020/12/12 05:32:59;;;;;;;2.10;1.60;;;18.90;49.60;;;;;;5060185;28;20064;-48
2020/12/12 05:35:25;;;;;;;2.20;2.00;;;18.90;49.60;;;;;;5061198;28;20118;-48
2020/12/12 05:37:50;;;;;;;2.53;2.08;;;18.90;49.70;;;;;;5061725;28;20661;-50
2020/12/12 05:40:16;;;;;;;2.20;2.00;;;18.80;49.60;;;;;;5057474;28;20037;-50
2020/12/12 05:42:41;;;;;;;2.15;1.90;;;18.80;50.20;;;;;;5056677;28;20032;-51
2020/12/12 05:45:07;;;;;;;1.88;1.77;;;18.80;49.70;;;;;;5026405;28;20071;-50
2020/12/12 05:47:33;;;;;;;2.88;2.30;;;18.80;49.70;;;;;;5049461;28;20032;-49
2020/12/12 05:49:59;;;;;;;2.63;1.90;;;18.70;49.60;;;;;;5043452;28;20445;-52
2020/12/12 05:52:25;;;;;;;2.03;1.52;;;18.70;49.60;;;;;;5044378;28;20708;-49
2020/12/12 05:54:50;;;;;;;2.08;1.88;;;18.70;49.50;;;;;;5027641;28;20036;-52
2020/12/12 05:57:16;;;;;;;2.17;1.90;;;18.80;49.60;;;;;;5045307;28;20059;-48
2020/12/12 05:59:42;;;;;;;2.50;1.92;;;18.80;49.70;;;;;;5027596;28;20029;-51
2020/12/12 06:02:08;;;;;;;2.70;1.92;;;18.90;49.90;;;;;;5053125;28;20060;-50
2020/12/12 06:04:35;;;;;;;1.77;1.67;;;19.00;50.00;;;;;;5027066;28;20059;-49
2020/12/12 06:07:04;;;;;;;2.00;1.80;;;19.10;50.00;;;;;;5027025;28;20037;-48
2020/12/12 06:09:36;;;;;;;1.65;1.50;;;19.20;50.10;;;;;;5059108;28;20055;-49
2020/12/12 06:12:02;;;;;;;1.95;1.50;;;19.20;50.10;;;;;;5037696;28;20489;-52
2020/12/12 06:14:27;;;;;;;1.95;1.70;;;19.30;50.20;;;;;;5044577;28;20044;-48
2020/12/12 06:16:53;;;;;;;1.80;1.60;;;19.30;50.00;;;;;;5027151;28;20040;-48
2020/12/12 06:19:18;;;;;;;2.05;1.85;;;19.40;50.10;;;;;;5027625;28;20108;-50
2020/12/12 06:21:47;;;;;;;2.05;1.73;;;19.40;50.00;;;;;;5026583;28;20171;-48
2020/12/12 06:24:17;;;;;;;1.73;1.50;;;19.40;49.90;;;;;;5044932;28;20047;-50
2020/12/12 06:27:10;;;;;;;1.92;1.77;;;19.40;49.90;;;;;;5044197;28;20045;-49
2020/12/12 06:29:41;;;;;;;1.80;1.70;;;19.40;50.40;;;;;;5027001;28;20037;-50
2020/12/12 06:32:12;;;;;;;1.70;1.40;;;19.40;49.70;;;;;;5043721;28;20037;-48
2020/12/12 06:34:51;;;;;;;2.15;1.80;;;19.40;49.60;;;;;;5026665;28;20086;-49
2020/12/12 06:37:39;;;;;;;1.63;1.50;;;19.40;49.60;;;;;;5026603;28;20120;-49
2020/12/12 06:40:06;;;;;;;1.67;1.58;;;19.40;49.70;;;;;;5044436;28;20548;-48
2020/12/12 06:42:36;;;;;;;2.00;1.80;;;19.30;49.50;;;;;;5043568;28;20041;-50
2020/12/12 06:45:04;;;;;;;2.10;1.90;;;19.30;49.50;;;;;;5026455;28;20474;-49
2020/12/12 06:47:42;;;;;;;1.65;1.55;;;19.30;49.40;;;;;;5044763;28;20094;-51
2020/12/12 06:50:13;;;;;;;1.63;1.52;;;19.30;49.30;;;;;;5044147;28;20679;-49
2020/12/12 06:52:39;;;;;;;1.52;1.42;;;19.20;49.30;;;;;;5044024;28;20452;-48
2020/12/12 06:55:09;;;;;;;1.98;1.70;;;19.20;49.20;;;;;;5044081;28;20087;-52
2020/12/12 06:57:44;;;;;;;2.00;1.75;;;19.20;49.20;;;;;;5044467;28;20040;-48
2020/12/12 07:00:25;;;;;;;2.85;1.55;;;19.20;49.30;;;;;;5043536;28;20049;-52
2020/12/12 07:03:01;;;;;;;1.90;1.70;;;19.10;49.30;;;;;;5042814;28;20047;-48
2020/12/12 07:05:29;;;;;;;1.80;1.70;;;19.10;49.40;;;;;;5043669;28;20069;-49
2020/12/12 07:08:01;;;;;;;1.67;1.58;;;19.10;49.30;;;;;;5042283;28;20143;-52
2020/12/12 07:10:27;;;;;;;1.65;1.55;;;19.00;49.30;;;;;;5046414;28;20032;-48
2020/12/12 07:12:53;;;;;;;2.03;1.58;;;19.00;49.30;;;;;;5045741;28;20520;-49
2020/12/12 07:15:18;;;;;;;2.10;1.65;;;18.90;49.30;;;;;;5063516;28;20029;-48
2020/12/12 07:17:44;;;;;;;1.77;1.67;;;18.90;49.30;;;;;;5046259;28;20566;-48
2020/12/12 07:20:09;;;;;;;2.00;1.80;;;18.90;49.40;;;;;;5063529;28;20043;-49
2020/12/12 07:22:35;;;;;;;2.05;1.42;;;18.90;49.40;;;;;;5062895;28;20048;-48
2020/12/12 07:25:03;;;;;;;2.15;1.65;;;18.80;49.30;;;;;;5045116;28;20064;-48
2020/12/12 07:27:29;;;;;;;1.58;1.48;;;18.80;49.30;;;;;;5042997;28;21767;-48
2020/12/12 07:29:54;;;;;;;1.60;1.50;;;18.80;49.30;;;;;;5044497;28;20033;-49
2020/12/12 07:32:20;;;;;;;2.08;1.83;;;18.80;50.00;;;;;;5043707;28;20033;-49
2020/12/12 07:34:45;;;;;;;2.25;2.05;;;18.80;49.40;;;;;;5043307;28;20057;-49
2020/12/12 07:37:11;;;;;;;1.65;1.55;;;18.80;49.40;;;;;;5042936;28;20037;-48
2020/12/12 07:39:41;;;;;;;2.53;1.92;;;18.70;49.30;;;;;;5042871;28;20406;-49
2020/12/12 07:42:08;;;;;;;1.88;1.63;;;18.70;49.40;;;;;;5042649;28;20110;-48
2020/12/12 07:44:34;;;;;;;1.60;1.48;;;18.80;49.40;;;;;;5043605;28;20095;-48
2020/12/12 07:47:01;;;;;;;1.30;1.17;;;18.90;49.60;;;;;;5059950;28;20032;-57
2020/12/12 07:49:26;;;;;;;3.40;1.80;;;19.00;49.70;;;;;;5056254;28;20108;-51
2020/12/12 07:52:09;;;;;;;5.60;2.45;;;19.10;49.70;;;;;;5058814;28;20124;-48
2020/12/12 07:54:42;;;;;;;2.67;2.10;;;19.20;49.70;;;;;;5031940;28;20037;-51
2020/12/12 07:57:09;;;;;;;6.40;2.33;;;19.30;49.80;;;;;;5032071;28;20037;-49
2020/12/12 07:59:35;;;;;;;3.95;2.90;;;19.30;49.80;;;;;;5023771;28;20047;-50
2020/12/12 08:02:02;;;;;;;7.30;2.50;;;19.40;49.80;;;;;;5040445;28;20480;-55
2020/12/12 08:04:27;;;;;;;5.28;2.42;;;19.40;49.70;;;;;;5024770;28;20026;-52
2020/12/12 08:06:53;;;;;;;3.20;2.30;;;19.40;49.70;;;;;;5041969;28;20086;-49
2020/12/12 08:09:23;;;;;;;5.28;2.72;;;19.40;49.60;;;;;;5042405;28;20379;-52
2020/12/12 08:11:58;;;;;;;6.68;2.80;;;19.40;49.60;;;;;;5042192;28;20037;-50
2020/12/12 08:14:24;;;;;;;6.57;2.92;;;19.40;49.50;;;;;;5042080;28;20029;-48
2020/12/12 08:16:54;;;;;;;5.38;3.03;;;19.40;49.50;;;;;;5036687;28;20402;-49
2020/12/12 08:19:20;;;;;;;6.53;3.50;;;19.40;49.50;;;;;;5022440;28;20119;-50
2020/12/12 08:21:50;;;;;;;7.72;4.03;;;19.40;49.40;;;;;;5019590;28;20124;-48
2020/12/12 08:24:16;;;;;;;6.50;3.33;;;19.40;49.20;;;;;;5023778;28;20220;-48
2020/12/12 08:26:41;;;;;;;6.03;3.20;;;19.40;49.30;;;;;;5020610;28;20569;-49
2020/12/12 08:29:07;;;;;;;6.60;3.92;;;19.30;49.30;;;;;;5042192;28;20036;-49
2020/12/12 08:31:37;;;;;;;8.27;3.45;;;19.30;49.30;;;;;;5042135;28;20033;-51
2020/12/12 08:34:02;;;;;;;5.40;3.47;;;19.20;49.30;;;;;;5042917;28;20498;-51
2020/12/12 08:36:31;;;;;;;5.10;3.00;;;19.20;49.30;;;;;;5041984;28;20048;-50
2020/12/12 08:39:06;;;;;;;5.47;3.47;;;19.20;49.30;;;;;;5042732;28;20033;-51
2020/12/12 08:41:36;;;;;;;5.55;2.83;;;19.20;49.40;;;;;;5042300;28;20450;-51
2020/12/12 08:44:02;;;;;;;8.05;3.33;;;19.20;49.30;;;;;;5025310;28;20114;-51
2020/12/12 08:46:27;;;;;;;5.97;3.05;;;19.10;49.30;;;;;;5042519;28;20064;-50
2020/12/12 08:48:54;;;;;;;4.43;2.80;;;19.10;49.30;;;;;;5041155;28;20075;-52
2020/12/12 08:51:26;;;;;;;7.35;3.67;;;19.10;49.30;;;;;;5041511;28;20738;-52
2020/12/12 08:53:52;;;;;;;3.72;2.95;;;19.10;49.30;;;;;;5042066;28;20037;-50
2020/12/12 08:56:20;;;;;;;6.40;3.05;;;19.00;49.30;;;;;;5035983;28;20029;-49
2020/12/12 08:58:51;;;;;;;6.38;2.90;;;19.00;49.30;;;;;;5041905;28;20033;-49
2020/12/12 09:01:29;;;;;;;7.93;3.30;;;18.90;49.20;;;;;;5041433;28;20685;-49
2020/12/12 09:04:13;;;;;;;4.35;2.92;;;18.90;49.30;;;;;;5042171;28;20110;-50
2020/12/12 09:06:44;;;;;;;3.88;2.58;;;18.90;49.30;;;;;;5042065;28;20537;-51
2020/12/12 09:09:18;;;;;;;3.65;2.80;;;18.90;49.40;;;;;;5042226;28;20025;-51
2020/12/12 09:11:48;;;;;;;4.10;2.85;;;18.80;49.30;;;;;;5042086;28;20029;-49
2020/12/12 09:14:14;;;;;;;3.47;2.65;;;18.80;49.30;;;;;;5023673;28;20025;-49
2020/12/12 09:16:39;;;;;;;3.42;2.30;;;18.80;49.40;;;;;;5024509;28;20533;-49
2020/12/12 09:19:06;;;;;;;4.93;2.75;;;18.80;49.30;;;;;;5012080;28;20072;-49
2020/12/12 09:21:35;;;;;;;5.50;3.28;;;18.80;49.30;;;;;;5032481;28;20037;-49
2020/12/12 09:24:02;;;;;;;5.13;3.67;;;18.80;49.30;;;;;;5030366;28;20043;-50
2020/12/12 09:26:27;;;;;;;5.90;3.28;;;18.70;49.20;;;;;;5039394;28;20046;-55
2020/12/12 09:28:53;;;;;;;5.60;3.55;;;18.70;49.30;;;;;;5046811;28;20045;-51
2020/12/12 09:31:19;;;;;;;8.27;4.40;;;18.60;49.20;;;;;;5046694;28;20048;-50
2020/12/12 09:33:45;;;;;;;7.28;4.40;;;18.60;49.30;;;;;;5031476;28;20041;-49
2020/12/12 09:36:10;;;;;;;12.27;7.13;;;18.60;49.40;;;;;;5023319;28;20072;-46
2020/12/12 09:38:36;;;;;;;11.65;5.45;;;18.60;49.50;;;;;;5039310;22;20017;-44
2020/12/12 09:41:02;;;;;;;11.02;5.47;;;18.70;49.70;;;;;;5041772;28;20106;-45
2020/12/12 09:43:27;;;;;;;11.60;6.82;;;18.80;49.60;;;;;;5043929;28;20036;-44
2020/12/12 09:45:53;;;;;;;14.00;7.80;;;18.90;49.80;;;;;;5034318;28;20040;-42
2020/12/12 09:48:18;;;;;;;16.15;7.93;;;19.00;49.90;;;;;;5043011;28;20029;-43
2020/12/12 09:50:43;;;;;;;19.05;9.02;;;19.10;49.90;;;;;;5046306;28;20037;-43
2020/12/12 09:53:09;;;;;;;14.35;8.60;;;19.20;49.90;;;;;;5039363;28;20493;-42
2020/12/12 09:55:36;;;;;;;19.13;8.55;;;19.20;49.90;;;;;;5024364;28;20128;-43
2020/12/12 09:58:04;;;;;;;14.88;8.40;;;19.30;50.00;;;;;;5041075;28;20067;-43
2020/12/12 10:00:30;;;;;;;17.77;8.88;;;19.40;50.00;;;;;;5042567;28;20076;-45
2020/12/12 10:02:55;;;;;;;14.57;8.85;;;19.40;49.90;;;;;;5044261;28;20065;-43
2020/12/12 10:05:21;;;;;;;18.52;8.50;;;19.40;49.80;;;;;;5044636;28;20068;-43
2020/12/12 10:07:46;;;;;;;14.50;8.15;;;19.50;49.80;;;;;;5026802;28;20047;-45
2020/12/12 10:10:12;;;;;;;17.77;9.38;;;19.50;49.70;;;;;;5045543;28;20534;-44
2020/12/12 10:12:37;;;;;;;19.52;9.40;;;19.50;49.70;;;;;;5044774;28;20048;-42
2020/12/12 10:15:03;;;;;;;14.02;8.55;;;19.50;49.60;;;;;;5041945;28;20033;-44
2020/12/12 10:17:29;;;;;;;14.82;9.02;;;19.50;49.60;;;;;;5042085;28;20559;-43
2020/12/12 10:19:55;;;;;;;13.15;8.43;;;19.50;49.50;;;;;;5043887;28;20033;-42
2020/12/12 10:22:20;;;;;;;16.95;9.38;;;19.50;49.40;;;;;;5044026;28;20434;-48
2020/12/12 10:24:46;;;;;;;17.40;9.60;;;19.50;49.40;;;;;;5036372;28;20041;-45
2020/12/12 10:27:11;;;;;;;19.90;10.68;;;19.50;49.40;;;;;;5031701;28;20033;-46
2020/12/12 10:29:37;;;;;;;16.60;9.13;;;19.40;49.30;;;;;;5025119;28;20061;-44
2020/12/12 10:32:02;;;;;;;17.92;9.82;;;19.40;49.30;;;;;;5025443;28;20165;-44
2020/12/12 10:34:28;;;;;;;19.05;10.27;;;19.40;49.30;;;;;;5006704;28;20032;-45
2020/12/12 10:36:53;;;;;;;20.45;10.48;;;19.40;49.30;;;;;;5022349;28;20037;-43
2020/12/12 10:39:31;;;;;;;18.27;9.15;;;19.30;49.20;;;;;;5023744;28;20048;-43
2020/12/12 10:41:59;;;;;;;16.73;10.15;;;19.30;49.10;;;;;;5023518;28;20021;-43
2020/12/12 10:44:25;;;;;;;16.77;8.57;;;19.30;49.20;;;;;;5024137;28;20040;-43
2020/12/12 10:46:51;;;;;;;11.85;8.43;;;19.30;49.20;;;;;;5037605;28;20037;-43
2020/12/12 10:49:17;;;;;;;14.82;9.20;;;19.30;49.20;;;;;;5045026;28;20091;-42
2020/12/12 10:51:49;;;;;;;14.68;8.27;;;19.20;49.10;;;;;;5042535;28;20037;-45
2020/12/12 10:54:18;;;;;;;14.70;8.50;;;19.20;49.10;;;;;;5041996;28;20428;-54
2020/12/12 10:56:44;;;;;;;13.85;7.80;;;19.20;49.10;;;;;;5043707;28;20090;-49
2020/12/12 10:59:10;;;;;;;13.43;8.40;;;19.20;49.00;;;;;;5045049;28;20033;-44
2020/12/12 11:01:36;;;;;;;12.20;8.13;;;19.20;49.00;;;;;;5042124;28;20087;-42
2020/12/12 11:04:02;;;;;;;15.05;8.10;;;19.10;49.00;;;;;;5044631;28;20028;-45
2020/12/12 11:06:27;;;;;;;11.98;7.88;;;19.10;49.10;;;;;;5033116;28;20376;-45
2020/12/12 11:08:53;;;;;;;12.52;7.95;;;19.10;49.10;;;;;;5050102;28;20055;-47
2020/12/12 11:11:18;;;;;;;12.85;7.95;;;19.00;49.70;;;;;;5044445;28;20041;-44
2020/12/12 11:13:44;;;;;;;12.15;7.88;;;19.00;49.10;;;;;;5045183;28;20135;-50
2020/12/12 11:16:09;;;;;;;14.02;8.15;;;19.00;49.10;;;;;;5044391;28;20025;-45
2020/12/12 11:18:35;;;;;;;14.45;7.88;;;19.00;49.20;;;;;;5043828;28;20454;-51
2020/12/12 11:21:00;;;;;;;14.65;8.73;;;19.00;49.20;;;;;;5041394;28;20029;-47
2020/12/12 11:23:26;;;;;;;11.55;7.32;;;18.90;49.10;;;;;;5049248;28;20478;-49
2020/12/12 11:25:52;;;;;;;10.73;7.30;;;18.90;49.10;;;;;;5041893;28;20044;-45
2020/12/12 11:28:17;;;;;;;14.07;8.15;;;18.90;49.10;;;;;;5045159;28;20032;-48
2020/12/12 11:30:43;;;;;;;12.45;8.10;;;18.90;49.10;;;;;;5043813;28;21624;-45
2020/12/12 11:33:08;;;;;;;11.73;6.97;;;18.80;49.00;;;;;;5044180;28;20123;-44
2020/12/12 11:36:07;;;;;;;12.43;7.90;;;18.80;49.10;;;;;;5044678;28;20054;-48
2020/12/12 11:38:51;;;;;;;10.32;7.25;;;18.80;49.10;;;;;;5045104;28;20118;-47
2020/12/12 11:46:38;;;;;;;13.32;8.00;;;18.70;49.10;;;;;;5044771;28;20075;-49
2020/12/12 11:49:08;;;;;;;10.50;7.05;;;18.70;49.10;;;;;;5042715;28;20044;-44
2020/12/12 11:51:36;;;;;;;13.63;7.63;;;18.60;49.10;;;;;;5041547;28;20516;-44
2020/12/12 11:54:02;;;;;;;12.05;7.25;;;18.70;49.10;;;;;;5041433;28;20041;-44
2020/12/12 11:56:28;;;;;;;11.20;6.43;;;18.60;49.10;;;;;;5024945;28;20049;-45
2020/12/12 11:58:53;;;;;;;9.15;6.63;;;18.60;49.10;;;;;;5042657;28;20613;-42
2020/12/12 12:01:23;;;;;;;13.07;7.35;;;18.60;49.20;;;;;;5042793;28;20029;-43
2020/12/12 12:03:49;;;;;;;11.20;7.50;;;18.60;49.10;;;;;;5042469;28;20033;-43
2020/12/12 12:06:15;;;;;;;12.77;6.78;;;18.60;49.20;;;;;;5042374;28;20127;-42
2020/12/12 12:08:58;;;;;;;8.90;6.82;;;18.60;49.20;;;;;;5043100;28;20124;-43
2020/12/12 12:11:31;;;;;;;12.35;6.15;;;18.60;49.20;;;;;;5034771;28;20033;-44
2020/12/12 12:14:04;;;;;;;9.35;6.18;;;18.50;49.20;;;;;;5043001;28;20168;-45
2020/12/12 12:16:36;;;;;;;9.07;6.22;;;18.50;49.70;;;;;;5041464;28;20076;-43
2020/12/12 12:19:06;;;;;;;10.15;6.00;;;18.50;49.50;;;;;;5042314;28;20075;-46
2020/12/12 12:21:34;;;;;;;10.13;6.82;;;18.50;49.40;;;;;;5042446;28;20060;-46
2020/12/12 12:23:59;;;;;;;9.20;6.80;;;18.50;49.40;;;;;;5043121;28;20025;-44
2020/12/12 12:26:25;;;;;;;15.02;7.13;;;18.60;50.20;;;;;;5042810;28;20037;-43
2020/12/12 12:28:50;;;;;;;10.93;6.32;;;18.50;49.50;;;;;;5043783;28;20055;-41
2020/12/12 12:31:19;;;;;;;10.40;6.68;;;18.50;49.50;;;;;;5041640;28;20037;-42
2020/12/12 12:33:45;;;;;;;10.55;6.18;;;18.60;49.50;;;;;;5042876;28;20029;-43
2020/12/12 12:36:10;;;;;;;13.05;7.22;;;18.60;49.50;;;;;;5042130;28;20044;-42
2020/12/12 12:38:36;;;;;;;11.07;6.22;;;18.50;49.50;;;;;;5042535;28;20052;-44
2020/12/12 12:41:01;;;;;;;11.88;6.05;;;18.50;49.60;;;;;;5042568;28;20029;-43
2020/12/12 12:43:27;;;;;;;9.65;6.18;;;18.60;49.60;;;;;;5042781;28;20086;-41
2020/12/12 12:45:52;;;;;;;8.55;6.65;;;18.60;49.50;;;;;;5042612;28;20025;-42
2020/12/12 12:48:18;;;;;;;8.45;5.85;;;18.60;49.50;;;;;;5033634;28;20390;-44
2020/12/12 12:50:43;;;;;;;10.85;6.43;;;18.60;49.50;;;;;;5042095;28;20133;-43